Kechi, Kansas
Current Conditions -  °F | °C
As of 9:54 AM on Saturday 22 Nov 2014 (Local Time) from KAAO Reporting Station
Moderate Fog Moderate Fog  
Wind Chill: 10°   Ceiling: 200
Heat Index: 10°   Visibility: 0.25mi
Dew Point: 10°   Wind: 9mph
Humidity: 100%   Direction: 190°S
Pressure: 29.93"   Gusts: NA
Location:  37.8°N, 97.28°W
Report Text: KAAO 221554Z AUTO 19008KT 1/4SM FG VV002 10/10 A2993 RMK AO2 SLP139 T01000100
Loading
Personal Weather Stations






























Interactive Weather Map New forecast layout! Learn more

10-Day Weather Forecast

Advertisements
Track Severe Weather on mobile